TimeEST,TemperatureF,Dew PointF,Humidity,Sea Level PressureIn,VisibilityMPH,Wind Direction,Wind SpeedMPH,Gust SpeedMPH,PrecipitationIn,Events,Conditions,WindDirDegrees,DateUTC
12:15 AM,-3.6,-7.1,85,30.41,10.0,Calm,Calm,-,N/A,,Clear,0,2013-01-25 05:15:00
12:36 AM,-2.9,-6.0,87,30.42,10.0,Calm,Calm,-,N/A,,Clear,0,2013-01-25 05:36:00
12:55 AM,-2.4,-5.6,86,30.40,10.0,Calm,Calm,-,N/A,,Clear,0,2013-01-25 05:55:00
1:15 AM,-1.5,-4.7,86,30.40,10.0,Calm,Calm,-,N/A,,Clear,0,2013-01-25 06:15:00
1:36 AM,-0.6,-4.0,85,30.38,10.0,Calm,Calm,-,N/A,,Mostly Cloudy,0,2013-01-25 06:36:00
1:55 AM,-0.4,-3.5,87,30.37,10.0,Calm,Calm,-,N/A,,Overcast,0,2013-01-25 06:55:00
2:16 AM,0.5,-2.2,88,30.36,5.0,Calm,Calm,-,N/A,Snow,Light Snow,0,2013-01-25 07:16:00
2:36 AM,2.1,-0.9,87,30.35,5.0,Calm,Calm,-,N/A,Snow,Light Snow,0,2013-01-25 07:36:00
2:55 AM,3.0,-0.0,87,30.35,5.0,Calm,Calm,-,N/A,Snow,Light Snow,0,2013-01-25 07:55:00
3:16 AM,3.6,0.7,88,30.34,3.0,Calm,Calm,-,N/A,Snow,Light Snow,0,2013-01-25 08:16:00
3:36 AM,4.6,1.9,89,30.33,4.0,Calm,Calm,-,N/A,Snow,Light Snow,0,2013-01-25 08:36:00
3:55 AM,5.9,3.2,89,30.32,5.0,Calm,Calm,-,N/A,Snow,Light Snow,0,2013-01-25 08:55:00
4:16 AM,7.2,4.8,90,30.31,7.0,Calm,Calm,-,N/A,Snow,Light Snow,0,2013-01-25 09:16:00
4:35 AM,7.7,5.4,90,30.29,10.0,ESE,3.5,-,N/A,Snow,Light Snow,110,2013-01-25 09:35:00
4:55 AM,6.8,4.1,89,30.28,10.0,Calm,Calm,-,N/A,,Overcast,0,2013-01-25 09:55:00
5:16 AM,5.4,2.8,89,30.26,10.0,Calm,Calm,-,N/A,,Scattered Clouds,0,2013-01-25 10:16:00
5:35 AM,4.6,2.3,90,30.25,10.0,Calm,Calm,-,N/A,,Scattered Clouds,0,2013-01-25 10:35:00
5:55 AM,4.5,2.1,90,30.24,10.0,Calm,Calm,-,N/A,,Scattered Clouds,0,2013-01-25 10:55:00
6:16 AM,6.6,4.3,90,30.23,10.0,Calm,Calm,-,N/A,,Mostly Cloudy,0,2013-01-25 11:16:00
6:35 AM,3.9,1.4,89,30.22,10.0,Calm,Calm,-,N/A,,Overcast,0,2013-01-25 11:35:00
6:56 AM,4.8,2.3,89,30.21,10.0,Calm,Calm,-,N/A,,Overcast,0,2013-01-25 11:56:00
7:16 AM,4.8,2.1,89,30.20,10.0,Calm,Calm,-,N/A,Snow,Light Snow,0,2013-01-25 12:16:00
7:35 AM,11.3,7.7,85,30.19,10.0,South,4.6,-,N/A,Snow,Light Snow,190,2013-01-25 12:35:00
7:56 AM,13.1,8.6,82,30.18,10.0,South,3.5,-,N/A,,Mostly Cloudy,170,2013-01-25 12:56:00
8:35 AM,13.8,9.9,84,30.17,7.0,South,5.8,-,N/A,Snow,Light Snow,190,2013-01-25 13:35:00
8:56 AM,14.4,10.6,85,30.16,4.0,SSE,4.6,-,N/A,Snow,Light Snow,160,2013-01-25 13:56:00
9:15 AM,14.9,11.3,86,30.16,3.0,SSE,5.8,-,N/A,Snow,Light Snow,160,2013-01-25 14:15:00
9:36 AM,15.4,11.3,84,30.15,5.0,SSE,4.6,-,N/A,Snow,Light Snow,160,2013-01-25 14:36:00
9:56 AM,15.8,11.3,82,30.14,10.0,SSE,4.6,-,N/A,,Overcast,160,2013-01-25 14:56:00
10:15 AM,16.3,11.8,82,30.14,10.0,SSE,6.9,-,N/A,,Overcast,160,2013-01-25 15:15:00
10:36 AM,16.7,12.2,82,30.13,5.0,SSE,8.1,-,N/A,Snow,Light Snow,160,2013-01-25 15:36:00
10:55 AM,17.1,12.7,83,30.13,5.0,SSE,8.1,-,N/A,Snow,Light Snow,150,2013-01-25 15:55:00
11:15 AM,17.2,13.1,84,30.11,2.5,SSE,9.2,-,N/A,Snow,Light Snow,150,2013-01-25 16:15:00
11:36 AM,17.4,13.5,84,30.10,3.0,SSE,6.9,-,N/A,Snow,Light Snow,150,2013-01-25 16:36:00
11:55 AM,17.6,13.5,84,30.08,5.0,SE,5.8,-,N/A,Snow,Light Snow,140,2013-01-25 16:55:00
12:16 PM,18.0,14.0,84,30.07,3.0,SSE,5.8,-,N/A,Snow,Light Snow,160,2013-01-25 17:16:00
12:35 PM,18.1,14.9,87,30.06,2.0,SE,5.8,-,N/A,Snow,Light Snow,140,2013-01-25 17:35:00
12:56 PM,18.5,15.1,86,30.04,1.2,SSE,6.9,-,N/A,Snow,Light Snow,150,2013-01-25 17:56:00
1:16 PM,19.0,15.6,87,30.03,1.2,SSE,6.9,-,N/A,Snow,Light Snow,150,2013-01-25 18:16:00
1:36 PM,19.4,16.0,87,30.02,2.5,SSE,5.8,-,N/A,Snow,Light Snow,150,2013-01-25 18:36:00
2:16 PM,19.4,15.1,83,29.99,4.0,SE,4.6,-,N/A,Snow,Light Snow,140,2013-01-25 19:16:00
2:36 PM,19.4,15.6,85,29.98,1.5,SE,4.6,-,N/A,Snow,Light Snow,140,2013-01-25 19:36:00
2:55 PM,19.4,15.4,85,29.98,3.0,SE,5.8,-,N/A,Snow,Light Snow,130,2013-01-25 19:55:00
3:16 PM,19.8,15.4,83,29.98,4.0,SE,6.9,-,N/A,Snow,Light Snow,130,2013-01-25 20:16:00
3:35 PM,19.4,15.8,86,29.98,2.5,SSE,5.8,-,N/A,Snow,Light Snow,150,2013-01-25 20:35:00
3:56 PM,19.0,15.4,86,29.98,2.5,East,3.5,-,N/A,Snow,Light Snow,80,2013-01-25 20:56:00
4:15 PM,17.4,14.7,89,29.98,2.5,ENE,5.8,-,N/A,Snow,Light Snow,70,2013-01-25 21:15:00
4:36 PM,16.9,14.7,91,29.98,1.8,ENE,3.5,-,N/A,Snow,Light Snow,60,2013-01-25 21:36:00
4:55 PM,16.7,14.5,91,29.98,1.8,East,3.5,-,N/A,Snow,Light Snow,90,2013-01-25 21:55:00
5:16 PM,16.3,14.2,91,29.97,1.5,East,4.6,-,N/A,Snow,Light Snow,80,2013-01-25 22:16:00
5:36 PM,16.0,13.8,91,29.98,4.0,East,4.6,-,N/A,Snow,Light Snow,90,2013-01-25 22:36:00
5:55 PM,15.8,13.8,92,29.98,3.0,East,4.6,-,N/A,Snow,Light Snow,80,2013-01-25 22:55:00
6:16 PM,15.6,13.6,92,29.98,3.0,East,3.5,-,N/A,Snow,Light Snow,90,2013-01-25 23:16:00
6:36 PM,15.8,13.8,92,29.98,2.0,ENE,4.6,-,N/A,Snow,Light Snow,70,2013-01-25 23:36:00
6:55 PM,15.4,13.6,93,29.99,5.0,ENE,3.5,-,N/A,Snow,Light Snow,70,2013-01-25 23:55:00
7:16 PM,15.6,13.8,93,29.99,3.0,ENE,5.8,-,N/A,Snow,Light Snow,60,2013-01-26 00:16:00
7:36 PM,15.8,14.0,93,29.99,2.5,East,3.5,-,N/A,Snow,Light Snow,80,2013-01-26 00:36:00
7:55 PM,15.8,14.0,93,29.99,4.0,ENE,3.5,-,N/A,Snow,Light Snow,70,2013-01-26 00:55:00
8:16 PM,15.8,14.0,93,30.00,7.0,ENE,5.8,-,N/A,Snow,Light Snow,60,2013-01-26 01:16:00
8:35 PM,15.6,13.8,93,30.00,7.0,East,3.5,-,N/A,Snow,Light Snow,80,2013-01-26 01:35:00
8:55 PM,15.6,13.6,92,29.99,4.0,East,4.6,-,N/A,Snow,Light Snow,90,2013-01-26 01:55:00
9:15 PM,15.4,13.5,92,29.99,4.0,East,5.8,-,N/A,Snow,Light Snow,100,2013-01-26 02:15:00
9:35 PM,15.3,13.1,91,29.99,2.0,East,5.8,-,N/A,Snow,Light Snow,80,2013-01-26 02:35:00
9:56 PM,14.9,12.9,92,29.99,2.5,East,4.6,-,N/A,Snow,Light Snow,90,2013-01-26 02:56:00
10:15 PM,14.5,12.4,91,30.00,3.0,East,6.9,-,N/A,Snow,Light Snow,90,2013-01-26 03:15:00
10:35 PM,14.4,12.2,91,30.00,3.0,East,5.8,-,N/A,Snow,Light Snow,100,2013-01-26 03:35:00
10:56 PM,14.2,12.0,91,30.00,3.0,East,4.6,-,N/A,Snow,Light Snow,100,2013-01-26 03:56:00
11:15 PM,14.0,12.0,92,30.00,4.0,East,4.6,-,N/A,Snow,Light Snow,90,2013-01-26 04:15:00
11:36 PM,13.8,11.7,91,30.01,4.0,ENE,3.5,-,N/A,Snow,Light Snow,70,2013-01-26 04:36:00
11:56 PM,13.5,11.3,91,30.01,5.0,Calm,Calm,-,N/A,Snow,Light Snow,0,2013-01-26 04:56:00